Accueil
METAR-TAF:

METAR-TAF

Aéroports :

Curaçao, Antilles néerlandaises

Aéroport international de Curaçao

latitude: 12-12N, longitude: 068-58W, altitude: 9 m

Observation

Le bulletin a été fait il y a 22 minutes, à 23:00 UTC
Vent 14 kt de est
Température 28°C
Humidité 79%
Pression 1012 hPa
Visibilité: 9000 m
Quelques nuages à une hauteur de 1800 ft

METAR: TNCC 242300Z 10014KT 9000 FEW018 28/24 Q1012 NOSIG

Heure: 19:22 (23:22 UTC)

Prévision

Le bulletin a été fait il y a 7 heures et 22 minutes, à 16:00 UTC
Prévision valable du 24 à 18 UTC au 25 à 18 UTC
Vent 15 kt de est/sud-est avec des rafales jusqu'à 28 kt
Visibilité 10 km ou plus
Nuages épars à une hauteur de 2000 ft

TAF: TNCC 241600Z 2418/2518 11015G28KT 9999 SCT020

Observations et prévisions météorologiques de plus de 4000 aéroports (messages METAR et TAF).

Les stations disponibles sont représentées par des disques jaunes et rouges sur la carte.

Passer la souris dessus pour voir le nom de la station.

Cliquer dessus pour voir les observations et prévisions météorologiques.

Pour changer de carte: cliquez sur les boutons verts avec une croix noire pour zoomer, sur le bouton vert avec un tiret pour effectuer un zoom arrière, ou sur les flèches vertes pour les cartes adjacentes.


METAR-TAF: